Time;durP1;ratioP1;P1;durP2;ratioP2;P2;SDS_P1;SDS_P2;PMS_P1;PMS_P2;Temp;Humidity;BMP_temperature;BMP_pressure;BME280_temperature;BME280_humidity;BME280_pressure;Samples;Min_cycle;Max_cycle;Signal;HPM_P1;HPM_P2
2022/06/26 00:01:47;;;;;;;5.22;2.75;;;;;;;18.14;78.80;100750.00;1786515;80;21225;-87
2022/06/26 00:04:13;;;;;;;4.85;3.17;;;;;;;18.12;78.79;100756.80;1789803;80;20880;-87
2022/06/26 00:06:40;;;;;;;4.95;2.72;;;;;;;18.11;78.81;100756.92;1789611;80;20905;-87
2022/06/26 00:09:07;;;;;;;4.35;2.90;;;;;;;18.11;78.92;100761.73;1791649;79;20982;-86
2022/06/26 00:11:35;;;;;;;4.35;3.35;;;;;;;18.11;78.83;100760.41;1792015;78;20994;-87
2022/06/26 00:14:02;;;;;;;5.70;2.70;;;;;;;18.11;78.75;100758.25;1791978;80;21278;-87
2022/06/26 00:16:28;;;;;;;7.50;3.22;;;;;;;18.09;78.67;100764.19;1791891;78;20895;-87
2022/06/26 00:18:56;;;;;;;5.42;3.15;;;;;;;18.08;78.62;100762.02;1792336;79;20793;-87
2022/06/26 00:21:22;;;;;;;7.25;2.55;;;;;;;18.06;78.65;100757.84;1792281;80;20919;-87
2022/06/26 00:23:49;;;;;;;5.22;2.80;;;;;;;18.06;78.78;100764.47;1792124;78;20896;-87
2022/06/26 00:26:15;;;;;;;5.15;3.17;;;;;;;18.05;78.56;100772.90;1791878;78;21174;-87
2022/06/26 00:28:43;;;;;;;4.15;2.85;;;;;;;18.05;78.67;100783.52;1792153;78;20786;-86
2022/06/26 00:31:10;;;;;;;3.92;3.52;;;;;;;18.07;78.38;100787.37;1792259;78;20943;-87
2022/06/26 00:33:36;;;;;;;4.35;2.50;;;;;;;18.07;78.47;100786.04;1792463;78;20888;-87
2022/06/26 00:36:03;;;;;;;6.67;3.10;;;;;;;18.07;78.53;100790.85;1792438;78;21464;-87
2022/06/26 00:38:30;;;;;;;3.47;2.67;;;;;;;18.10;78.46;100788.44;1792725;78;21094;-86
2022/06/26 00:40:57;;;;;;;5.42;3.05;;;;;;;18.11;78.34;100790.94;1792395;79;20891;-86
2022/06/26 00:43:28;;;;;;;4.40;2.30;;;;;;;18.14;78.38;100788.49;1792035;78;21086;-87
2022/06/26 00:45:55;;;;;;;6.37;3.42;;;;;;;18.15;78.64;100788.86;1792022;78;20978;-87
2022/06/26 00:48:21;;;;;;;3.17;2.90;;;;;;;18.15;78.71;100793.67;1792309;78;20864;-86
2022/06/26 00:50:48;;;;;;;7.15;2.58;;;;;;;18.17;78.53;100798.36;1792362;79;21115;-87
2022/06/26 00:53:14;;;;;;;4.20;2.47;;;;;;;18.17;78.37;100790.39;1792196;79;20919;-85
2022/06/26 00:55:40;;;;;;;6.30;2.58;;;;;;;18.17;78.13;100788.23;1792580;79;20919;-87
2022/06/26 00:58:07;;;;;;;4.60;2.58;;;;;;;18.16;78.12;100787.41;1792789;79;21002;-86
2022/06/26 01:00:34;;;;;;;3.90;2.70;;;;;;;18.16;78.30;100788.73;1790613;80;20919;-87
2022/06/26 01:03:01;;;;;;;4.03;2.92;;;;;;;18.17;78.40;100794.38;1789977;80;21121;-86
2022/06/26 01:05:28;;;;;;;2.70;2.27;;;;;;;18.18;78.24;100793.39;1790351;80;20978;-83
2022/06/26 01:07:55;;;;;;;3.30;2.80;;;;;;;18.17;78.12;100793.55;1791635;79;20883;-85
2022/06/26 01:10:24;;;;;;;3.45;2.37;;;;;;;18.15;78.26;100800.31;1789922;79;20927;-87
2022/06/26 01:12:51;;;;;;;7.90;2.50;;;;;;;18.16;78.42;100799.81;1789589;79;21375;-85
2022/06/26 01:15:19;;;;;;;2.83;2.50;;;;;;;18.16;78.53;100795.83;1789501;79;21230;-88
2022/06/26 01:17:45;;;;;;;5.35;3.12;;;;;;;18.16;78.67;100799.34;1789358;79;21345;-87
2022/06/26 01:20:14;;;;;;;3.80;3.37;;;;;;;18.15;78.80;100797.66;1789520;79;21488;-87
2022/06/26 01:22:41;;;;;;;5.50;3.05;;;;;;;18.16;79.06;100793.17;1789490;80;20895;-87
2022/06/26 01:25:08;;;;;;;4.97;2.35;;;;;;;18.18;79.38;100787.25;1789553;79;20919;-87
2022/06/26 01:27:42;;;;;;;6.00;2.80;;;;;;;18.18;79.68;100773.48;1789653;79;21104;-87
2022/06/26 01:30:10;;;;;;;2.85;2.60;;;;;;;18.18;79.82;100781.44;1789524;80;21389;-87
2022/06/26 01:32:37;;;;;;;3.67;2.47;;;;;;;18.18;79.96;100778.78;1789621;79;20986;-87
2022/06/26 01:35:06;;;;;;;5.00;2.20;;;;;;;18.14;80.12;100780.06;1789432;79;20887;-87
2022/06/26 01:37:33;;;;;;;3.05;2.37;;;;;;;18.13;80.18;100777.05;1789527;79;20832;-87
2022/06/26 01:40:00;;;;;;;6.15;2.40;;;;;;;18.14;80.13;100773.89;1789577;79;21183;-86
2022/06/26 01:42:26;;;;;;;2.83;2.37;;;;;;;18.13;80.12;100775.72;1789540;79;21053;-86
2022/06/26 01:44:53;;;;;;;5.75;2.60;;;;;;;18.13;79.94;100785.50;1769889;80;21408;-85
2022/06/26 01:47:21;;;;;;;4.17;2.65;;;;;;;18.12;79.94;100778.50;1789525;80;20900;-86
2022/06/26 01:49:48;;;;;;;5.53;2.60;;;;;;;18.12;79.78;100784.67;1789715;79;20943;-87
2022/06/26 01:52:15;;;;;;;3.33;2.47;;;;;;;18.12;79.91;100786.00;1789672;80;21214;-87
2022/06/26 01:54:44;;;;;;;3.45;2.67;;;;;;;18.13;79.94;100785.00;1789560;80;20951;-88
2022/06/26 01:57:11;;;;;;;2.22;2.02;;;;;;;18.15;79.81;100791.52;1789674;79;21445;-86
2022/06/26 01:59:37;;;;;;;5.12;2.27;;;;;;;18.15;79.66;100796.33;1789523;80;20990;-86
2022/06/26 02:02:05;;;;;;;2.90;2.58;;;;;;;18.16;79.64;100796.70;1767269;79;20899;-87
2022/06/26 02:04:33;;;;;;;3.45;2.58;;;;;;;18.16;79.52;100795.83;1760792;81;21098;-87
2022/06/26 02:07:00;;;;;;;3.27;2.00;;;;;;;18.14;79.44;100798.64;1760558;81;21060;-88
2022/06/26 02:15:09;;;;;;;2.92;2.27;;;;;;;18.16;79.63;100804.66;1760507;81;20958;-87
2022/06/26 02:17:37;;;;;;;3.52;2.60;;;;;;;18.18;79.65;100800.02;1760481;81;21239;-86
2022/06/26 02:20:05;;;;;;;2.90;2.58;;;;;;;18.20;79.50;100802.55;1760459;80;20906;-87
2022/06/26 02:22:32;;;;;;;2.35;2.15;;;;;;;18.22;79.59;100813.37;1760472;81;20930;-86
2022/06/26 02:24:59;;;;;;;2.87;2.67;;;;;;;18.25;79.50;100807.45;1760657;80;20898;-86
2022/06/26 02:27:25;;;;;;;3.25;2.47;;;;;;;18.27;79.58;100812.97;1760598;81;20911;-86
2022/06/26 02:29:52;;;;;;;3.90;2.52;;;;;;;18.28;79.60;100810.67;1760448;81;21233;-87
2022/06/26 02:32:18;;;;;;;5.40;2.80;;;;;;;18.30;79.68;100806.56;1760908;81;20966;-85
2022/06/26 02:34:46;;;;;;;2.37;1.80;;;;;;;18.32;79.53;100809.43;1761897;80;20922;-85
2022/06/26 02:37:12;;;;;;;5.65;2.70;;;;;;;18.35;79.43;100808.31;1760852;81;21017;-85
2022/06/26 02:39:40;;;;;;;4.83;2.83;;;;;;;18.36;79.37;100810.84;1761181;80;20906;-86
2022/06/26 02:42:07;;;;;;;4.35;3.00;;;;;;;18.37;79.12;100807.69;1760568;81;22083;-87
2022/06/26 02:44:34;;;;;;;4.10;2.30;;;;;;;18.38;79.22;100799.56;1760587;81;20906;-86
2022/06/26 02:47:01;;;;;;;3.40;2.65;;;;;;;18.41;79.04;100803.78;1760707;81;20954;-87
2022/06/26 02:49:27;;;;;;;5.95;2.50;;;;;;;18.43;78.97;100800.47;1760722;81;20962;-88
2022/06/26 02:51:54;;;;;;;3.00;2.70;;;;;;;18.46;78.77;100806.85;1760833;81;20855;-86
2022/06/26 02:54:21;;;;;;;3.65;2.25;;;;;;;18.49;78.53;100801.75;1762059;81;21389;-86
2022/06/26 02:56:48;;;;;;;2.92;2.45;;;;;;;18.51;78.67;100806.44;1761238;81;20974;-86
2022/06/26 02:59:14;;;;;;;4.87;2.62;;;;;;;18.54;78.72;100814.11;1760938;81;20891;-87
2022/06/26 03:01:41;;;;;;;4.17;2.50;;;;;;;18.56;78.67;100824.11;1760643;80;20934;-87
2022/06/26 03:04:12;;;;;;;5.95;2.37;;;;;;;18.58;78.72;100825.64;1757692;81;21044;-86
2022/06/26 03:06:40;;;;;;;5.47;2.42;;;;;;;18.62;78.40;100825.72;1760837;81;21200;-86
2022/06/26 03:09:07;;;;;;;4.05;2.45;;;;;;;18.66;78.29;100824.97;1760966;80;21005;-86
2022/06/26 03:11:34;;;;;;;2.65;2.12;;;;;;;18.68;78.21;100830.15;1760687;80;20945;-86
2022/06/26 03:14:00;;;;;;;2.92;1.75;;;;;;;18.70;77.96;100833.48;1761018;81;20918;-86
2022/06/26 03:16:27;;;;;;;2.80;2.60;;;;;;;18.72;77.77;100839.03;1761961;80;21216;-87
2022/06/26 03:18:56;;;;;;;8.13;3.27;;;;;;;18.74;77.81;100830.89;1763064;79;21217;-86
2022/06/26 03:21:23;;;;;;;3.95;3.40;;;;;;;18.77;77.70;100835.48;1762906;79;20953;-86
2022/06/26 03:24:01;;;;;;;5.17;2.50;;;;;;;18.79;77.45;100838.84;1762794;79;20934;-85
2022/06/26 03:26:33;;;;;;;5.90;2.52;;;;;;;18.82;77.12;100841.20;1762996;79;21017;-86
2022/06/26 03:29:00;;;;;;;5.28;2.83;;;;;;;18.84;77.18;100842.41;1763258;79;20977;-86
2022/06/26 03:31:27;;;;;;;4.08;2.35;;;;;;;18.85;77.07;100845.40;1762756;79;21211;-87
2022/06/26 03:33:55;;;;;;;3.62;2.50;;;;;;;18.89;77.13;100840.66;1762820;79;20847;-86
2022/06/26 03:36:23;;;;;;;3.17;2.75;;;;;;;18.92;76.98;100836.38;1762682;79;20930;-87
2022/06/26 03:38:49;;;;;;;9.88;3.35;;;;;;;18.96;76.80;100846.58;1762651;79;21477;-86
2022/06/26 03:41:17;;;;;;;3.25;2.95;;;;;;;18.99;76.64;100841.50;1762858;79;20978;-87
2022/06/26 03:43:44;;;;;;;4.08;2.42;;;;;;;19.04;76.31;100852.04;1762719;79;21033;-87
2022/06/26 03:46:11;;;;;;;4.50;2.80;;;;;;;19.09;76.28;100850.28;1763267;79;20919;-86
2022/06/26 03:48:37;;;;;;;7.65;3.17;;;;;;;19.14;75.90;100846.73;1763786;80;20971;-86
2022/06/26 03:51:05;;;;;;;5.15;2.92;;;;;;;19.19;75.50;100842.31;1763533;79;20907;-86
2022/06/26 03:53:33;;;;;;;4.08;3.08;;;;;;;19.23;75.26;100840.55;1763405;79;20840;-87
2022/06/26 03:55:59;;;;;;;7.22;2.80;;;;;;;19.29;74.90;100837.80;1763510;79;21152;-87
2022/06/26 03:58:26;;;;;;;3.42;2.33;;;;;;;19.37;74.64;100829.12;1763613;79;20899;-88
2022/06/26 04:00:53;;;;;;;3.70;3.17;;;;;;;19.44;74.46;100840.84;1763442;79;20958;-87
2022/06/26 04:03:20;;;;;;;4.15;2.62;;;;;;;19.46;73.95;100836.23;1763608;81;20910;-86
2022/06/26 04:05:49;;;;;;;3.08;2.35;;;;;;;19.46;73.76;100841.05;1763573;79;20986;-87
2022/06/26 04:08:15;;;;;;;5.12;3.22;;;;;;;19.49;73.84;100843.08;1763610;81;21120;-85
2022/06/26 04:10:44;;;;;;;2.45;2.27;;;;;;;19.51;73.80;100843.27;1762702;81;20899;-84
2022/06/26 04:14:37;;;;;;;5.15;2.62;;;;;;;19.61;73.46;100851.24;1885061;75;23056;-84
2022/06/26 04:17:04;;;;;;;3.65;2.98;;;;;;;19.62;73.42;100851.58;1861514;77;21016;-87
2022/06/26 04:19:31;;;;;;;7.72;3.92;;;;;;;19.72;73.38;100848.90;1861321;77;21182;-85
2022/06/26 04:21:59;;;;;;;5.05;3.02;;;;;;;19.81;73.34;100843.56;1861180;77;20903;-87
2022/06/26 04:24:26;;;;;;;5.90;3.65;;;;;;;19.93;72.75;100841.53;1861524;77;20895;-87
2022/06/26 04:26:53;;;;;;;4.53;2.90;;;;;;;20.13;72.69;100838.28;1861501;77;20981;-87
2022/06/26 04:29:19;;;;;;;6.42;3.40;;;;;;;20.38;72.22;100836.70;1861160;76;20935;-87
2022/06/26 04:31:47;;;;;;;5.53;3.65;;;;;;;20.59;70.98;100839.13;1861299;76;21233;-87
2022/06/26 04:34:15;;;;;;;3.72;3.42;;;;;;;20.77;70.73;100845.80;1861121;77;20910;-87
2022/06/26 04:36:41;;;;;;;3.22;2.92;;;;;;;20.93;69.95;100847.76;1861189;77;20962;-87
2022/06/26 04:39:10;;;;;;;9.35;3.75;;;;;;;21.29;69.46;100840.52;1859651;76;20977;-86
2022/06/26 04:41:37;;;;;;;4.03;3.10;;;;;;;21.65;67.95;100842.27;1861280;77;20875;-87
2022/06/26 04:44:09;;;;;;;3.70;3.37;;;;;;;22.17;67.39;100848.02;1861108;76;21237;-86
2022/06/26 04:46:38;;;;;;;6.30;3.20;;;;;;;22.75;65.45;100846.64;1861143;77;20871;-86
2022/06/26 04:49:05;;;;;;;3.33;3.00;;;;;;;23.37;63.21;100842.63;1861108;77;20906;-87
2022/06/26 04:51:35;;;;;;;4.35;2.35;;;;;;;23.94;61.65;100850.49;1861108;77;20930;-87
2022/06/26 04:54:01;;;;;;;6.22;2.55;;;;;;;24.41;59.70;100855.45;1860666;77;20919;-87
2022/06/26 04:56:29;;;;;;;4.75;3.08;;;;;;;24.81;57.89;100849.02;1860089;77;21886;-87
2022/06/26 04:58:57;;;;;;;5.40;2.47;;;;;;;25.18;57.70;100854.56;1861072;77;20864;-87
2022/06/26 05:01:26;;;;;;;2.77;2.58;;;;;;;25.65;56.58;100853.44;1861112;76;20827;-88
2022/06/26 05:04:04;;;;;;;11.63;2.62;;;;;;;26.15;55.79;100851.02;1859009;77;20914;-87
2022/06/26 05:06:33;;;;;;;3.42;2.05;;;;;;;26.63;53.59;100848.66;1821462;77;20832;-87
2022/06/26 05:09:07;;;;;;;2.55;2.35;;;;;;;27.10;52.25;100845.86;1837751;77;21286;-87
2022/06/26 05:11:35;;;;;;;3.10;2.17;;;;;;;27.53;50.68;100839.58;1860970;77;20856;-87
2022/06/26 05:14:03;;;;;;;3.95;2.33;;;;;;;27.88;49.70;100838.54;1843932;76;20946;-87
2022/06/26 05:16:31;;;;;;;3.17;2.20;;;;;;;28.14;48.89;100841.53;1834158;76;20914;-87
2022/06/26 05:18:59;;;;;;;4.42;2.60;;;;;;;28.40;48.00;100838.08;1836054;77;20863;-88
2022/06/26 05:21:26;;;;;;;4.90;2.05;;;;;;;28.53;47.45;100845.41;1836182;77;21246;-89
2022/06/26 05:23:52;;;;;;;2.65;2.12;;;;;;;28.79;47.08;100850.84;1836224;77;20891;-87
2022/06/26 05:26:20;;;;;;;2.40;2.20;;;;;;;29.11;46.14;100847.84;1835505;77;20950;-87
2022/06/26 05:28:49;;;;;;;5.40;2.40;;;;;;;29.44;46.07;100852.91;1835410;77;20995;-87
2022/06/26 05:31:16;;;;;;;2.65;2.45;;;;;;;29.74;45.36;100845.97;1835341;78;20906;-90
2022/06/26 05:33:43;;;;;;;3.15;2.83;;;;;;;30.05;44.96;100856.56;1835274;78;21176;-88
2022/06/26 05:36:11;;;;;;;4.50;1.95;;;;;;;30.31;43.87;100857.00;1836345;77;21286;-87
2022/06/26 05:38:37;;;;;;;4.72;2.87;;;;;;;30.48;43.55;100858.68;1807498;78;20875;-88
2022/06/26 05:41:05;;;;;;;5.20;2.50;;;;;;;30.69;43.62;100859.37;1835336;76;20939;-87
2022/06/26 05:43:33;;;;;;;5.45;2.40;;;;;;;30.83;42.72;100855.50;1835405;77;21440;-89
2022/06/26 05:46:00;;;;;;;15.72;3.30;;;;;;;30.89;42.54;100853.30;1836891;77;21062;-88
2022/06/26 05:48:45;;;;;;;2.70;1.82;;;;;;;30.99;42.45;100852.79;1835980;77;20867;-88
2022/06/26 05:51:31;;;;;;;2.60;2.40;;;;;;;31.16;42.28;100844.94;1835350;77;20942;-87
2022/06/26 05:53:59;;;;;;;1.90;1.65;;;;;;;31.45;41.29;100848.84;1828194;78;21381;-88
2022/06/26 05:56:33;;;;;;;5.25;1.50;;;;;;;31.72;40.42;100850.73;1834561;77;20910;-88
2022/06/26 05:59:14;;;;;;;2.47;1.77;;;;;;;31.98;39.80;100840.66;1835275;77;21148;-87
2022/06/26 06:01:45;;;;;;;3.65;2.02;;;;;;;32.25;39.75;100837.58;1832305;77;21401;-89
2022/06/26 06:04:14;;;;;;;2.37;2.02;;;;;;;32.45;39.51;100835.39;1834628;78;20918;-88
2022/06/26 06:06:42;;;;;;;1.85;1.75;;;;;;;32.67;38.92;100831.64;1835041;78;20879;-90
2022/06/26 06:09:09;;;;;;;1.95;1.80;;;;;;;32.85;38.96;100833.44;1835222;76;20898;-88
2022/06/26 06:11:35;;;;;;;1.55;1.45;;;;;;;32.97;38.88;100831.57;1835405;77;21227;-88
2022/06/26 06:14:03;;;;;;;4.53;1.87;;;;;;;33.17;38.55;100833.12;1842895;77;20960;-89
2022/06/26 06:16:31;;;;;;;1.75;1.65;;;;;;;33.37;37.80;100830.88;1849671;77;20929;-90
2022/06/26 06:18:59;;;;;;;2.20;2.08;;;;;;;33.49;37.54;100831.39;1849681;77;21356;-88
2022/06/26 06:21:27;;;;;;;4.60;1.60;;;;;;;33.51;36.70;100829.27;1851277;77;20881;-87
2022/06/26 06:23:54;;;;;;;2.25;2.10;;;;;;;33.42;36.50;100817.92;1851065;76;21094;-87
2022/06/26 06:26:20;;;;;;;1.75;1.50;;;;;;;33.31;36.22;100826.92;1849977;77;21031;-88
2022/06/26 06:28:47;;;;;;;2.30;2.10;;;;;;;33.21;36.60;100828.86;1849608;76;20873;-87
2022/06/26 06:31:14;;;;;;;4.72;1.72;;;;;;;33.20;36.58;100831.30;1849884;77;21020;-88
2022/06/26 06:33:41;;;;;;;2.83;1.80;;;;;;;33.33;36.71;100832.92;1849610;77;20960;-88
2022/06/26 06:36:10;;;;;;;1.92;1.67;;;;;;;33.49;36.28;100834.11;1849532;77;21089;-88
2022/06/26 06:38:37;;;;;;;3.70;1.65;;;;;;;33.64;35.73;100834.47;1849591;76;20854;-88
2022/06/26 06:41:06;;;;;;;5.08;1.50;;;;;;;33.72;35.88;100834.07;1849497;77;20843;-88
2022/06/26 06:43:40;;;;;;;2.05;1.77;;;;;;;33.74;35.45;100835.20;1847084;77;20964;-87
2022/06/26 06:46:25;;;;;;;1.50;1.40;;;;;;;33.60;35.92;100835.47;1849637;77;20897;-91
2022/06/26 06:48:59;;;;;;;2.35;1.72;;;;;;;33.79;35.91;100832.58;1849506;77;21140;-89
2022/06/26 06:51:28;;;;;;;4.80;1.45;;;;;;;33.96;35.77;100832.65;1849294;77;21312;-90
2022/06/26 06:53:55;;;;;;;1.70;1.55;;;;;;;34.13;35.47;100831.35;1850249;77;21387;-90
2022/06/26 06:56:22;;;;;;;3.40;2.33;;;;;;;34.37;35.06;100834.79;1849996;77;20885;-89
2022/06/26 06:58:48;;;;;;;1.37;1.35;;;;;;;34.46;34.71;100834.16;1849649;77;20834;-88
2022/06/26 07:01:15;;;;;;;3.15;1.47;;;;;;;34.50;34.48;100835.84;1824539;77;21202;-90
2022/06/26 07:03:42;;;;;;;2.15;1.67;;;;;;;34.63;34.74;100840.18;1850252;77;20952;-90
2022/06/26 07:06:09;;;;;;;1.52;1.15;;;;;;;34.67;33.77;100835.35;1850084;77;20818;-90
2022/06/26 07:08:35;;;;;;;2.65;1.70;;;;;;;34.63;33.91;100840.18;1849805;76;20949;-90
2022/06/26 07:11:02;;;;;;;1.60;1.40;;;;;;;34.55;33.94;100831.86;1850540;76;20893;-88
2022/06/26 07:13:29;;;;;;;2.75;2.52;;;;;;;34.46;34.45;100836.03;1827645;77;21772;-88
2022/06/26 07:15:56;;;;;;;2.25;1.40;;;;;;;34.33;33.90;100831.75;1862018;76;20943;-86
2022/06/26 07:18:25;;;;;;;1.50;1.40;;;;;;;34.04;34.54;100833.63;1860707;77;20910;-90
2022/06/26 07:20:53;;;;;;;3.12;1.65;;;;;;;33.87;35.18;100821.86;1860814;77;20907;-89
2022/06/26 07:23:20;;;;;;;1.55;1.40;;;;;;;33.75;34.89;100836.33;1860402;77;20863;-89
2022/06/26 07:25:48;;;;;;;1.65;1.55;;;;;;;33.64;35.29;100831.21;1860079;76;21094;-92
2022/06/26 07:28:16;;;;;;;2.12;1.40;;;;;;;33.60;35.07;100826.48;1860285;77;20832;-89
2022/06/26 07:30:42;;;;;;;4.03;2.05;;;;;;;33.60;35.44;100830.03;1860795;77;20955;-88
2022/06/26 07:34:12;;;;;;;2.80;1.52;;;;;;;33.64;34.85;100830.39;1861256;77;21365;-90
2022/06/26 07:35:38;;;;;;;3.90;1.30;;;;;;;33.76;34.72;100831.71;1856483;76;20879;-90
2022/06/26 07:38:06;;;;;;;3.80;1.25;;;;;;;33.92;34.38;100825.49;1861454;77;21124;-92
2022/06/26 07:40:34;;;;;;;2.67;2.27;;;;;;;34.17;33.38;100831.16;1861446;77;20982;-90
2022/06/26 07:43:02;;;;;;;3.02;2.83;;;;;;;34.37;33.68;100830.16;1860705;77;20887;-90
2022/06/26 07:45:31;;;;;;;1.92;1.47;;;;;;;34.41;33.17;100828.61;1860248;77;21002;-91
2022/06/26 07:48:01;;;;;;;1.40;1.30;;;;;;;34.41;33.92;100828.61;1860976;77;20872;-91
2022/06/26 07:50:28;;;;;;;2.90;2.50;;;;;;;34.64;34.35;100822.75;1861057;77;21089;-91
2022/06/26 07:52:55;;;;;;;1.90;1.80;;;;;;;34.88;33.55;100822.05;1829459;77;20875;-91
2022/06/26 07:55:22;;;;;;;2.83;1.47;;;;;;;35.00;32.69;100819.25;1858114;76;20928;-91
2022/06/26 07:57:48;;;;;;;3.67;1.82;;;;;;;35.04;33.10;100823.95;1860737;77;20887;-91
2022/06/26 08:00:15;;;;;;;2.90;2.67;;;;;;;35.18;32.96;100816.80;1860834;77;21310;-91
2022/06/26 08:02:42;;;;;;;3.20;1.47;;;;;;;35.19;32.89;100823.35;1860626;77;21292;-89
2022/06/26 08:05:08;;;;;;;1.98;1.80;;;;;;;35.22;32.71;100810.59;1860899;77;20832;-91
2022/06/26 08:07:36;;;;;;;1.70;1.35;;;;;;;35.27;32.48;100819.39;1860493;76;20875;-90
2022/06/26 08:10:06;;;;;;;2.58;1.05;;;;;;;35.37;32.83;100817.32;1861084;77;21361;-92
2022/06/26 08:12:32;;;;;;;2.33;1.32;;;;;;;35.50;32.81;100816.95;1860689;77;20875;-90
2022/06/26 08:14:59;;;;;;;1.57;1.35;;;;;;;35.60;31.90;100809.45;1853257;76;21099;-90
2022/06/26 08:17:25;;;;;;;1.52;1.30;;;;;;;35.58;32.49;100821.97;1849820;77;20913;-90
2022/06/26 08:19:53;;;;;;;2.12;1.72;;;;;;;35.47;32.09;100816.92;1849936;77;20937;-90
2022/06/26 08:22:19;;;;;;;3.33;1.50;;;;;;;35.34;32.04;100817.84;1849974;77;20869;-90
2022/06/26 08:24:46;;;;;;;3.33;1.60;;;;;;;35.19;32.25;100819.80;1850225;76;20873;-91
2022/06/26 08:27:12;;;;;;;2.95;1.37;;;;;;;34.98;32.01;100818.12;1849839;77;21213;-90
2022/06/26 08:29:39;;;;;;;1.40;1.30;;;;;;;34.96;32.35;100820.27;1849913;77;20896;-90
2022/06/26 08:32:06;;;;;;;1.62;1.52;;;;;;;35.11;31.95;100822.41;1850065;77;20846;-88
2022/06/26 08:34:32;;;;;;;4.03;1.35;;;;;;;35.21;32.30;100818.47;1849622;77;20886;-88
2022/06/26 08:36:59;;;;;;;4.78;1.20;;;;;;;35.29;31.89;100826.78;1850301;77;20901;-88
2022/06/26 08:39:26;;;;;;;1.45;1.32;;;;;;;35.48;31.32;100833.56;1850915;77;21445;-89
2022/06/26 08:41:54;;;;;;;3.87;1.50;;;;;;;35.55;30.82;100823.00;1849736;77;20890;-87
2022/06/26 08:44:23;;;;;;;1.17;1.12;;;;;;;35.62;30.74;100823.16;1850985;77;20921;-87
2022/06/26 08:46:50;;;;;;;4.47;2.75;;;;;;;35.63;30.74;100815.78;1852220;77;21347;-86
2022/06/26 08:49:20;;;;;;;3.02;2.75;;;;;;;35.70;31.30;100814.50;1849942;77;20904;-88
2022/06/26 08:51:48;;;;;;;2.52;2.33;;;;;;;35.76;30.71;100814.03;1849815;77;21316;-87
2022/06/26 08:54:16;;;;;;;7.12;6.50;;;;;;;35.73;30.47;100817.80;1849595;77;20968;-86
2022/06/26 08:56:45;;;;;;;4.12;3.83;;;;;;;35.77;30.68;100811.56;1849732;77;20894;-90
2022/06/26 08:59:13;;;;;;;4.47;1.37;;;;;;;35.88;31.17;100808.42;1849767;76;21506;-88
2022/06/26 09:01:40;;;;;;;1.40;1.30;;;;;;;35.83;31.03;100807.83;1849900;77;20896;-88
2022/06/26 09:04:07;;;;;;;2.62;1.77;;;;;;;35.67;30.80;100806.02;1849882;77;21153;-88
2022/06/26 09:06:34;;;;;;;6.70;6.10;;;;;;;35.63;31.58;100817.14;1850049;77;20834;-88
2022/06/26 09:09:23;;;;;;;6.58;5.70;;;;;;;35.77;32.09;100808.02;1849786;76;20940;-88
2022/06/26 09:11:53;;;;;;;3.05;1.60;;;;;;;35.78;31.65;100810.51;1849745;77;20850;-88
2022/06/26 09:14:20;;;;;;;4.45;1.50;;;;;;;35.41;31.49;100809.74;1826048;77;20922;-88
2022/06/26 09:16:47;;;;;;;2.70;1.52;;;;;;;35.22;32.07;100812.51;1860881;77;21330;-89
2022/06/26 09:19:18;;;;;;;3.62;1.67;;;;;;;34.96;32.37;100812.64;1860659;77;20891;-86
2022/06/26 09:21:47;;;;;;;7.05;4.45;;;;;;;34.66;32.30;100806.47;1860558;77;21444;-86
2022/06/26 09:24:15;;;;;;;4.65;3.12;;;;;;;34.62;32.73;100802.58;1860485;77;20915;-88
2022/06/26 09:26:43;;;;;;;2.90;2.10;;;;;;;34.56;32.79;100806.26;1860901;76;20923;-90
2022/06/26 09:29:17;;;;;;;10.28;9.28;;;;;;;34.42;33.35;100799.50;1860623;77;21152;-87
2022/06/26 09:31:44;;;;;;;2.50;2.30;;;;;;;34.55;32.98;100800.53;1860696;77;20895;-88
2022/06/26 09:34:25;;;;;;;1.42;1.32;;;;;;;34.61;33.27;100794.62;1860878;76;20990;-87
2022/06/26 09:37:01;;;;;;;1.80;1.00;;;;;;;35.01;32.49;100789.53;1861541;77;20923;-88
2022/06/26 09:39:30;;;;;;;4.37;3.98;;;;;;;35.01;32.49;100789.53;1860808;77;20997;-89
2022/06/26 09:41:56;;;;;;;5.08;4.67;;;;;;;35.11;32.54;100786.11;1860650;77;21138;-88
2022/06/26 09:44:23;;;;;;;2.33;2.05;;;;;;;35.24;32.33;100785.27;1860393;76;20962;-89
2022/06/26 09:46:50;;;;;;;3.92;3.47;;;;;;;35.33;32.75;100780.20;1860664;77;20883;-88
2022/06/26 09:49:17;;;;;;;3.75;1.65;;;;;;;35.51;32.35;100772.23;1860726;77;20985;-89
2022/06/26 09:51:45;;;;;;;1.55;1.45;;;;;;;35.68;32.53;100768.08;1861394;76;20864;-87
2022/06/26 09:54:11;;;;;;;1.55;1.40;;;;;;;35.70;31.91;100770.02;1862590;77;21187;-88
2022/06/26 09:56:37;;;;;;;2.45;1.50;;;;;;;35.51;31.85;100772.23;1858538;77;20820;-88
2022/06/26 09:59:04;;;;;;;4.97;4.35;;;;;;;35.33;31.97;100776.63;1860639;77;20918;-88
2022/06/26 10:07:02;;;;;;;1.25;1.20;;;;;;;35.19;31.91;100763.91;1862047;77;21143;-89
2022/06/26 10:09:29;;;;;;;2.12;1.17;;;;;;;34.94;31.58;100760.27;1863199;76;20840;-88
2022/06/26 10:11:59;;;;;;;3.98;1.75;;;;;;;34.56;31.75;100767.30;1863301;77;20982;-88
2022/06/26 10:14:40;;;;;;;3.20;1.92;;;;;;;34.13;32.24;100764.66;1860460;77;21043;-88
2022/06/26 10:17:44;;;;;;;5.75;5.30;;;;;;;33.77;33.30;100763.46;1851960;77;20943;-88
2022/06/26 10:20:12;;;;;;;6.33;5.72;;;;;;;33.77;33.72;100762.61;1852051;77;21092;-88
2022/06/26 10:22:40;;;;;;;4.37;4.00;;;;;;;33.68;34.36;100759.98;1852644;77;20857;-84
2022/06/26 10:25:08;;;;;;;5.62;2.08;;;;;;;33.51;34.34;100757.20;1852776;77;20956;-87
2022/06/26 10:27:36;;;;;;;6.08;2.08;;;;;;;33.30;34.96;100756.75;1853043;77;20975;-88
2022/06/26 10:30:13;;;;;;;3.12;1.72;;;;;;;33.07;35.32;100764.96;1853273;77;20869;-88
2022/06/26 10:32:40;;;;;;;4.00;1.32;;;;;;;32.81;35.30;100766.52;1852771;77;21115;-89
2022/06/26 10:35:08;;;;;;;6.78;2.50;;;;;;;32.47;35.55;100766.76;1852609;77;20862;-86
2022/06/26 10:37:48;;;;;;;4.62;3.27;;;;;;;32.13;36.44;100767.81;1851460;77;20921;-90
2022/06/26 10:43:14;;;;;;;2.58;1.82;;;;;;;31.80;37.63;100752.79;1849899;77;20870;-88
2022/06/26 10:45:40;;;;;;;4.45;1.80;;;;;;;31.76;37.55;100754.30;1849851;77;21870;-87
2022/06/26 10:48:26;;;;;;;5.17;2.85;;;;;;;31.79;37.88;100757.08;1849689;77;20944;-87
2022/06/26 10:50:57;;;;;;;3.98;2.08;;;;;;;31.99;38.14;100755.48;1849030;77;20877;-86
2022/06/26 10:53:36;;;;;;;4.05;1.80;;;;;;;32.27;37.25;100750.79;1849538;77;20895;-88
2022/06/26 10:56:05;;;;;;;2.60;1.75;;;;;;;32.55;36.38;100739.81;1849623;77;20940;-87
2022/06/26 10:58:44;;;;;;;2.08;1.98;;;;;;;32.90;34.81;100741.72;1850255;77;21395;-89
2022/06/26 11:01:12;;;;;;;5.28;1.60;;;;;;;33.17;33.76;100744.78;1850041;77;21035;-88
2022/06/26 11:03:40;;;;;;;2.95;1.40;;;;;;;33.37;33.60;100745.74;1849789;77;20857;-86
2022/06/26 11:06:14;;;;;;;2.98;2.47;;;;;;;33.44;33.51;100749.99;1849445;77;21344;-88
2022/06/26 11:08:50;;;;;;;3.40;1.52;;;;;;;33.41;33.38;100743.66;1849690;77;20987;-88
2022/06/26 11:11:25;;;;;;;5.30;1.42;;;;;;;33.30;33.59;100747.77;1849747;77;20959;-87
2022/06/26 11:14:00;;;;;;;2.35;1.72;;;;;;;33.09;33.78;100748.70;1850097;77;20984;-87
2022/06/26 11:16:41;;;;;;;3.05;1.30;;;;;;;32.90;34.20;100748.51;1849578;76;20896;-84
2022/06/26 11:19:22;;;;;;;1.40;1.30;;;;;;;32.74;33.89;100744.62;1849829;77;20878;-88
2022/06/26 11:21:48;;;;;;;5.25;1.95;;;;;;;32.57;34.04;100749.41;1850095;77;20834;-86
2022/06/26 11:24:15;;;;;;;4.78;1.45;;;;;;;32.59;34.73;100751.86;1850011;77;21144;-88
2022/06/26 11:26:42;;;;;;;3.42;1.47;;;;;;;32.66;33.82;100752.59;1849410;77;20909;-86
2022/06/26 11:29:08;;;;;;;8.68;2.80;;;;;;;32.72;33.17;100750.81;1849696;77;20877;-88
2022/06/26 11:31:36;;;;;;;4.78;1.70;;;;;;;32.72;33.46;100739.41;1849642;77;20956;-87
2022/06/26 11:34:13;;;;;;;4.80;2.45;;;;;;;32.66;33.36;100742.24;1849649;77;20948;-87
2022/06/26 11:36:58;;;;;;;1.80;1.70;;;;;;;32.53;33.87;100737.89;1850049;77;21111;-86
2022/06/26 11:39:38;;;;;;;4.28;2.15;;;;;;;32.33;34.08;100735.47;1850517;77;20921;-87
2022/06/26 11:42:22;;;;;;;3.52;2.00;;;;;;;32.07;34.56;100748.38;1848668;77;21415;-88
2022/06/26 11:44:52;;;;;;;3.67;2.72;;;;;;;31.89;35.03;100752.48;1849713;77;20874;-87
2022/06/26 11:47:19;;;;;;;6.62;2.37;;;;;;;31.74;34.43;100739.32;1849931;76;20878;-87